sensor_id;sensor_type;location;lat;lon;timestamp;temperature;humidity
24087;DHT22;22893;50.572;7.234;2022-11-15T00:00:59;20.90;66.90
24087;DHT22;22893;50.572;7.234;2022-11-15T00:03:27;20.90;66.70
24087;DHT22;22893;50.572;7.234;2022-11-15T00:06:00;20.90;66.60
24087;DHT22;22893;50.572;7.234;2022-11-15T00:08:24;20.90;66.60
24087;DHT22;22893;50.572;7.234;2022-11-15T00:10:56;20.90;66.70
24087;DHT22;22893;50.572;7.234;2022-11-15T00:13:24;20.90;66.90
24087;DHT22;22893;50.572;7.234;2022-11-15T00:15:52;20.90;66.70
24087;DHT22;22893;50.572;7.234;2022-11-15T00:18:20;20.90;66.80
24087;DHT22;22893;50.572;7.234;2022-11-15T00:20:47;20.90;66.80
24087;DHT22;22893;50.572;7.234;2022-11-15T00:23:15;20.90;66.90
24087;DHT22;22893;50.572;7.234;2022-11-15T00:25:43;20.90;67.00
24087;DHT22;22893;50.572;7.234;2022-11-15T00:28:10;20.90;67.00
24087;DHT22;22893;50.572;7.234;2022-11-15T00:30:38;20.90;66.90
24087;DHT22;22893;50.572;7.234;2022-11-15T00:33:06;20.90;66.90
24087;DHT22;22893;50.572;7.234;2022-11-15T00:35:34;20.90;66.90
24087;DHT22;22893;50.572;7.234;2022-11-15T00:38:02;20.90;66.90
24087;DHT22;22893;50.572;7.234;2022-11-15T00:40:30;20.90;66.90
24087;DHT22;22893;50.572;7.234;2022-11-15T00:42:58;20.90;66.90
24087;DHT22;22893;50.572;7.234;2022-11-15T00:45:25;20.90;66.90
24087;DHT22;22893;50.572;7.234;2022-11-15T00:47:53;20.90;66.80
24087;DHT22;22893;50.572;7.234;2022-11-15T00:50:21;21.00;67.00
24087;DHT22;22893;50.572;7.234;2022-11-15T00:52:48;20.90;66.90
24087;DHT22;22893;50.572;7.234;2022-11-15T00:55:17;20.90;66.80
24087;DHT22;22893;50.572;7.234;2022-11-15T00:57:45;20.90;66.80
24087;DHT22;22893;50.572;7.234;2022-11-15T01:00:13;21.00;67.00
24087;DHT22;22893;50.572;7.234;2022-11-15T01:02:41;20.90;66.80
24087;DHT22;22893;50.572;7.234;2022-11-15T01:05:09;20.90;66.90
24087;DHT22;22893;50.572;7.234;2022-11-15T01:07:36;20.90;66.80
24087;DHT22;22893;50.572;7.234;2022-11-15T01:10:04;20.90;66.80
24087;DHT22;22893;50.572;7.234;2022-11-15T01:12:32;21.00;67.50
24087;DHT22;22893;50.572;7.234;2022-11-15T01:15:00;20.90;66.80
24087;DHT22;22893;50.572;7.234;2022-11-15T01:17:28;20.90;66.80
24087;DHT22;22893;50.572;7.234;2022-11-15T01:19:57;20.90;66.80
24087;DHT22;22893;50.572;7.234;2022-11-15T01:22:24;20.90;66.80
24087;DHT22;22893;50.572;7.234;2022-11-15T01:24:52;20.90;66.80
24087;DHT22;22893;50.572;7.234;2022-11-15T01:27:20;20.90;66.90
24087;DHT22;22893;50.572;7.234;2022-11-15T01:29:48;20.90;67.00
24087;DHT22;22893;50.572;7.234;2022-11-15T01:32:15;20.90;66.80
24087;DHT22;22893;50.572;7.234;2022-11-15T01:34:43;21.00;66.90
24087;DHT22;22893;50.572;7.234;2022-11-15T01:37:11;21.00;67.00
24087;DHT22;22893;50.572;7.234;2022-11-15T01:39:38;21.00;66.90
24087;DHT22;22893;50.572;7.234;2022-11-15T01:42:09;21.00;66.90
24087;DHT22;22893;50.572;7.234;2022-11-15T01:44:41;20.90;66.80
24087;DHT22;22893;50.572;7.234;2022-11-15T01:47:15;20.90;66.80
24087;DHT22;22893;50.572;7.234;2022-11-15T01:49:57;20.90;66.80
24087;DHT22;22893;50.572;7.234;2022-11-15T01:52:26;20.90;66.80
24087;DHT22;22893;50.572;7.234;2022-11-15T01:55:24;20.90;66.80
24087;DHT22;22893;50.572;7.234;2022-11-15T01:57:55;20.90;66.80
24087;DHT22;22893;50.572;7.234;2022-11-15T02:00:22;20.90;66.80
24087;DHT22;22893;50.572;7.234;2022-11-15T02:02:50;20.90;66.80
24087;DHT22;22893;50.572;7.234;2022-11-15T02:05:18;20.90;66.80
24087;DHT22;22893;50.572;7.234;2022-11-15T02:07:46;20.90;66.80
24087;DHT22;22893;50.572;7.234;2022-11-15T02:10:21;20.90;66.90
24087;DHT22;22893;50.572;7.234;2022-11-15T02:12:46;21.00;66.90
24087;DHT22;22893;50.572;7.234;2022-11-15T02:15:14;20.90;66.80
24087;DHT22;22893;50.572;7.234;2022-11-15T02:17:53;20.90;66.80
24087;DHT22;22893;50.572;7.234;2022-11-15T02:31:09;20.90;66.80
24087;DHT22;22893;50.572;7.234;2022-11-15T02:33:50;20.90;66.90
24087;DHT22;22893;50.572;7.234;2022-11-15T02:42:01;20.90;66.80
24087;DHT22;22893;50.572;7.234;2022-11-15T02:44:30;20.90;66.90
24087;DHT22;22893;50.572;7.234;2022-11-15T02:47:02;20.90;66.90
24087;DHT22;22893;50.572;7.234;2022-11-15T02:49:56;20.90;66.90
24087;DHT22;22893;50.572;7.234;2022-11-15T02:52:24;20.90;66.90
24087;DHT22;22893;50.572;7.234;2022-11-15T02:54:54;20.90;66.90
24087;DHT22;22893;50.572;7.234;2022-11-15T08:44:29;21.00;68.90
24087;DHT22;22893;50.572;7.234;2022-11-15T08:46:56;21.00;68.70
24087;DHT22;22893;50.572;7.234;2022-11-15T08:49:24;21.00;69.50
24087;DHT22;22893;50.572;7.234;2022-11-15T08:51:51;21.00;68.70
24087;DHT22;22893;50.572;7.234;2022-11-15T08:54:19;21.00;68.70
24087;DHT22;22893;50.572;7.234;2022-11-15T08:56:47;21.00;68.80
24087;DHT22;22893;50.572;7.234;2022-11-15T08:59:14;21.00;68.90
24087;DHT22;22893;50.572;7.234;2022-11-15T09:01:42;21.00;68.70
24087;DHT22;22893;50.572;7.234;2022-11-15T09:04:10;21.00;68.90
24087;DHT22;22893;50.572;7.234;2022-11-15T09:06:37;21.00;68.90
24087;DHT22;22893;50.572;7.234;2022-11-15T09:09:05;21.00;68.90
24087;DHT22;22893;50.572;7.234;2022-11-15T09:11:32;21.10;69.00
24087;DHT22;22893;50.572;7.234;2022-11-15T09:14:00;21.10;69.00
24087;DHT22;22893;50.572;7.234;2022-11-15T09:16:27;21.10;69.20
24087;DHT22;22893;50.572;7.234;2022-11-15T09:18:57;21.00;68.90
24087;DHT22;22893;50.572;7.234;2022-11-15T09:21:25;21.10;68.80
24087;DHT22;22893;50.572;7.234;2022-11-15T09:23:52;21.00;68.70
24087;DHT22;22893;50.572;7.234;2022-11-15T09:26:20;21.00;68.50
24087;DHT22;22893;50.572;7.234;2022-11-15T09:28:48;21.00;68.30
24087;DHT22;22893;50.572;7.234;2022-11-15T09:31:15;21.00;68.10
24087;DHT22;22893;50.572;7.234;2022-11-15T09:33:46;21.00;68.00
24087;DHT22;22893;50.572;7.234;2022-11-15T09:36:15;21.00;67.90
24087;DHT22;22893;50.572;7.234;2022-11-15T09:38:43;21.00;67.80
24087;DHT22;22893;50.572;7.234;2022-11-15T09:48:54;21.00;67.50
24087;DHT22;22893;50.572;7.234;2022-11-15T09:51:29;21.00;67.40
24087;DHT22;22893;50.572;7.234;2022-11-15T09:56:53;21.00;67.30
24087;DHT22;22893;50.572;7.234;2022-11-15T10:02:23;21.00;67.30
24087;DHT22;22893;50.572;7.234;2022-11-15T10:04:48;21.00;67.20
24087;DHT22;22893;50.572;7.234;2022-11-15T10:07:26;21.00;67.10
24087;DHT22;22893;50.572;7.234;2022-11-15T10:12:41;21.00;67.00
24087;DHT22;22893;50.572;7.234;2022-11-15T10:15:13;21.00;67.00
24087;DHT22;22893;50.572;7.234;2022-11-15T10:20:50;21.00;66.70
24087;DHT22;22893;50.572;7.234;2022-11-15T10:23:20;21.00;67.00
24087;DHT22;22893;50.572;7.234;2022-11-15T10:25:51;21.00;67.20
24087;DHT22;22893;50.572;7.234;2022-11-15T10:28:28;21.00;67.20
24087;DHT22;22893;50.572;7.234;2022-11-15T10:30:58;21.00;67.20
24087;DHT22;22893;50.572;7.234;2022-11-15T10:33:32;20.90;67.00
24087;DHT22;22893;50.572;7.234;2022-11-15T10:36:17;21.00;67.10
24087;DHT22;22893;50.572;7.234;2022-11-15T10:38:51;20.90;66.80
24087;DHT22;22893;50.572;7.234;2022-11-15T10:41:30;20.90;66.70
24087;DHT22;22893;50.572;7.234;2022-11-15T10:44:25;20.90;66.60
24087;DHT22;22893;50.572;7.234;2022-11-15T10:49:29;21.00;66.70
24087;DHT22;22893;50.572;7.234;2022-11-15T10:52:04;21.00;66.70
24087;DHT22;22893;50.572;7.234;2022-11-15T10:54:36;21.00;66.70
24087;DHT22;22893;50.572;7.234;2022-11-15T10:57:10;21.00;66.70
24087;DHT22;22893;50.572;7.234;2022-11-15T10:59:38;21.00;66.70
24087;DHT22;22893;50.572;7.234;2022-11-15T11:02:36;21.00;66.80
24087;DHT22;22893;50.572;7.234;2022-11-15T11:05:24;21.00;66.90
24087;DHT22;22893;50.572;7.234;2022-11-15T11:07:35;21.00;67.50
24087;DHT22;22893;50.572;7.234;2022-11-15T11:10:20;21.00;67.00
24087;DHT22;22893;50.572;7.234;2022-11-15T11:12:48;21.00;67.70
24087;DHT22;22893;50.572;7.234;2022-11-15T11:15:17;21.00;67.00
24087;DHT22;22893;50.572;7.234;2022-11-15T11:18:07;21.00;66.90
24087;DHT22;22893;50.572;7.234;2022-11-15T11:20:38;21.00;67.00
24087;DHT22;22893;50.572;7.234;2022-11-15T11:28:57;21.00;67.10
24087;DHT22;22893;50.572;7.234;2022-11-15T11:31:50;21.00;67.20
24087;DHT22;22893;50.572;7.234;2022-11-15T11:42:17;21.10;67.50
24087;DHT22;22893;50.572;7.234;2022-11-15T11:45:10;21.10;67.70
24087;DHT22;22893;50.572;7.234;2022-11-15T11:47:36;21.10;67.50
24087;DHT22;22893;50.572;7.234;2022-11-15T11:50:19;21.10;67.50
24087;DHT22;22893;50.572;7.234;2022-11-15T11:53:11;21.10;66.80
24087;DHT22;22893;50.572;7.234;2022-11-15T11:55:45;21.10;67.60
24087;DHT22;22893;50.572;7.234;2022-11-15T11:58:34;21.10;67.70
24087;DHT22;22893;50.572;7.234;2022-11-15T12:12:17;21.10;67.80
24087;DHT22;22893;50.572;7.234;2022-11-15T12:15:03;21.10;67.80
24087;DHT22;22893;50.572;7.234;2022-11-15T12:17:24;21.10;67.80
24087;DHT22;22893;50.572;7.234;2022-11-15T12:19:56;21.20;67.90
24087;DHT22;22893;50.572;7.234;2022-11-15T12:25:21;21.20;67.90
24087;DHT22;22893;50.572;7.234;2022-11-15T12:27:54;21.10;67.90
24087;DHT22;22893;50.572;7.234;2022-11-15T12:30:23;21.20;68.00
24087;DHT22;22893;50.572;7.234;2022-11-15T12:33:00;21.20;68.00
24087;DHT22;22893;50.572;7.234;2022-11-15T12:35:36;21.20;68.20
24087;DHT22;22893;50.572;7.234;2022-11-15T12:38:11;21.20;68.40
24087;DHT22;22893;50.572;7.234;2022-11-15T12:43:45;21.20;68.50
24087;DHT22;22893;50.572;7.234;2022-11-15T12:49:01;21.20;68.70
24087;DHT22;22893;50.572;7.234;2022-11-15T12:59:52;21.20;69.20
24087;DHT22;22893;50.572;7.234;2022-11-15T13:02:26;21.20;69.30
24087;DHT22;22893;50.572;7.234;2022-11-15T13:07:57;21.30;69.60
24087;DHT22;22893;50.572;7.234;2022-11-15T13:10:31;21.20;69.50
24087;DHT22;22893;50.572;7.234;2022-11-15T13:16:00;21.30;69.60
24087;DHT22;22893;50.572;7.234;2022-11-15T13:18:37;21.30;69.60
24087;DHT22;22893;50.572;7.234;2022-11-15T13:21:22;21.30;69.70
24087;DHT22;22893;50.572;7.234;2022-11-15T13:23:56;21.30;69.70
24087;DHT22;22893;50.572;7.234;2022-11-15T13:26:24;21.30;69.80
24087;DHT22;22893;50.572;7.234;2022-11-15T13:28:52;21.30;69.80
24087;DHT22;22893;50.572;7.234;2022-11-15T13:31:42;21.30;69.70
24087;DHT22;22893;50.572;7.234;2022-11-15T13:34:23;21.30;69.80
24087;DHT22;22893;50.572;7.234;2022-11-15T13:36:49;21.30;69.70
24087;DHT22;22893;50.572;7.234;2022-11-15T13:39:28;21.30;69.70
24087;DHT22;22893;50.572;7.234;2022-11-15T13:41:56;21.30;69.80
24087;DHT22;22893;50.572;7.234;2022-11-15T13:44:32;21.30;69.80
24087;DHT22;22893;50.572;7.234;2022-11-15T13:47:12;21.30;69.60
24087;DHT22;22893;50.572;7.234;2022-11-15T13:49:36;21.30;69.70
24087;DHT22;22893;50.572;7.234;2022-11-15T13:52:07;21.30;69.60
24087;DHT22;22893;50.572;7.234;2022-11-15T13:54:47;21.30;69.60
24087;DHT22;22893;50.572;7.234;2022-11-15T13:57:15;21.30;69.70
24087;DHT22;22893;50.572;7.234;2022-11-15T13:59:57;21.30;69.70
24087;DHT22;22893;50.572;7.234;2022-11-15T14:02:18;21.30;69.70
24087;DHT22;22893;50.572;7.234;2022-11-15T14:05:11;21.30;69.70
24087;DHT22;22893;50.572;7.234;2022-11-15T14:07:29;21.30;69.70
24087;DHT22;22893;50.572;7.234;2022-11-15T14:09:57;21.30;69.60
24087;DHT22;22893;50.572;7.234;2022-11-15T14:12:30;21.40;69.80
24087;DHT22;22893;50.572;7.234;2022-11-15T14:15:39;21.30;69.80
24087;DHT22;22893;50.572;7.234;2022-11-15T14:18:05;21.30;69.70
24087;DHT22;22893;50.572;7.234;2022-11-15T14:20:35;21.30;70.40
24087;DHT22;22893;50.572;7.234;2022-11-15T14:23:18;21.40;69.80
24087;DHT22;22893;50.572;7.234;2022-11-15T14:25:35;21.30;69.80
24087;DHT22;22893;50.572;7.234;2022-11-15T14:30:53;21.40;69.70
24087;DHT22;22893;50.572;7.234;2022-11-15T14:33:23;21.30;69.60
24087;DHT22;22893;50.572;7.234;2022-11-15T14:35:52;21.40;69.70
24087;DHT22;22893;50.572;7.234;2022-11-15T14:38:21;21.30;69.60
24087;DHT22;22893;50.572;7.234;2022-11-15T14:40:50;21.30;69.50
24087;DHT22;22893;50.572;7.234;2022-11-15T14:43:18;21.30;69.60
24087;DHT22;22893;50.572;7.234;2022-11-15T14:45:45;21.40;69.60
24087;DHT22;22893;50.572;7.234;2022-11-15T14:48:13;21.40;69.60
24087;DHT22;22893;50.572;7.234;2022-11-15T14:50:40;21.40;69.60
24087;DHT22;22893;50.572;7.234;2022-11-15T14:53:16;21.40;69.60
24087;DHT22;22893;50.572;7.234;2022-11-15T14:55:44;21.40;69.60
24087;DHT22;22893;50.572;7.234;2022-11-15T14:58:12;21.40;69.60
24087;DHT22;22893;50.572;7.234;2022-11-15T15:00:40;21.40;69.50
24087;DHT22;22893;50.572;7.234;2022-11-15T15:03:08;21.40;69.60
24087;DHT22;22893;50.572;7.234;2022-11-15T15:05:39;21.40;69.60
24087;DHT22;22893;50.572;7.234;2022-11-15T15:08:07;21.40;69.60
24087;DHT22;22893;50.572;7.234;2022-11-15T15:10:38;21.40;69.60
24087;DHT22;22893;50.572;7.234;2022-11-15T15:13:19;21.40;69.60
24087;DHT22;22893;50.572;7.234;2022-11-15T15:15:48;21.40;69.50
24087;DHT22;22893;50.572;7.234;2022-11-15T15:18:16;21.40;69.50
24087;DHT22;22893;50.572;7.234;2022-11-15T15:20:45;21.40;69.60
24087;DHT22;22893;50.572;7.234;2022-11-15T15:23:18;21.40;69.50
24087;DHT22;22893;50.572;7.234;2022-11-15T15:25:47;21.40;69.50
24087;DHT22;22893;50.572;7.234;2022-11-15T15:28:15;21.40;69.40
24087;DHT22;22893;50.572;7.234;2022-11-15T15:30:43;21.40;69.40
24087;DHT22;22893;50.572;7.234;2022-11-15T15:33:10;21.40;69.40
24087;DHT22;22893;50.572;7.234;2022-11-15T15:35:38;21.40;69.50
24087;DHT22;22893;50.572;7.234;2022-11-15T15:38:05;21.40;69.30
24087;DHT22;22893;50.572;7.234;2022-11-15T15:40:33;21.40;69.30
24087;DHT22;22893;50.572;7.234;2022-11-15T15:43:01;21.40;69.30
24087;DHT22;22893;50.572;7.234;2022-11-15T15:45:28;21.40;69.30
24087;DHT22;22893;50.572;7.234;2022-11-15T15:47:56;21.40;69.40
24087;DHT22;22893;50.572;7.234;2022-11-15T15:50:26;21.40;69.30
24087;DHT22;22893;50.572;7.234;2022-11-15T15:52:57;21.40;69.40
24087;DHT22;22893;50.572;7.234;2022-11-15T15:55:24;21.40;69.40
24087;DHT22;22893;50.572;7.234;2022-11-15T15:57:52;21.40;69.40
24087;DHT22;22893;50.572;7.234;2022-11-15T16:00:21;21.40;69.30
24087;DHT22;22893;50.572;7.234;2022-11-15T16:02:50;21.40;69.30
24087;DHT22;22893;50.572;7.234;2022-11-15T16:05:18;21.40;69.30
24087;DHT22;22893;50.572;7.234;2022-11-15T16:07:46;21.40;69.30
24087;DHT22;22893;50.572;7.234;2022-11-15T16:10:29;21.40;69.20
24087;DHT22;22893;50.572;7.234;2022-11-15T16:12:57;21.40;69.10
24087;DHT22;22893;50.572;7.234;2022-11-15T16:15:27;21.40;69.10
24087;DHT22;22893;50.572;7.234;2022-11-15T16:17:59;21.40;69.00
24087;DHT22;22893;50.572;7.234;2022-11-15T16:20:36;21.40;69.00
24087;DHT22;22893;50.572;7.234;2022-11-15T16:23:05;21.40;69.00
24087;DHT22;22893;50.572;7.234;2022-11-15T16:28:25;21.40;68.80
24087;DHT22;22893;50.572;7.234;2022-11-15T16:33:29;21.40;68.70
24087;DHT22;22893;50.572;7.234;2022-11-15T16:35:56;21.40;68.70
24087;DHT22;22893;50.572;7.234;2022-11-15T16:38:24;21.40;68.80
24087;DHT22;22893;50.572;7.234;2022-11-15T16:40:52;21.40;68.60
24087;DHT22;22893;50.572;7.234;2022-11-15T16:43:19;21.30;68.60
24087;DHT22;22893;50.572;7.234;2022-11-15T16:45:47;21.40;68.70
24087;DHT22;22893;50.572;7.234;2022-11-15T16:48:23;21.40;68.60
24087;DHT22;22893;50.572;7.234;2022-11-15T16:50:57;21.40;68.60
24087;DHT22;22893;50.572;7.234;2022-11-15T16:53:26;21.40;68.70
24087;DHT22;22893;50.572;7.234;2022-11-15T16:55:55;21.40;68.70
24087;DHT22;22893;50.572;7.234;2022-11-15T16:58:23;21.40;68.70
24087;DHT22;22893;50.572;7.234;2022-11-15T17:00:55;21.40;68.80
24087;DHT22;22893;50.572;7.234;2022-11-15T17:03:23;21.40;68.80
24087;DHT22;22893;50.572;7.234;2022-11-15T17:05:51;21.40;68.80
24087;DHT22;22893;50.572;7.234;2022-11-15T17:08:19;21.40;68.80
24087;DHT22;22893;50.572;7.234;2022-11-15T17:10:48;21.40;68.80
24087;DHT22;22893;50.572;7.234;2022-11-15T17:13:15;21.40;68.80
24087;DHT22;22893;50.572;7.234;2022-11-15T17:15:43;21.40;68.70
24087;DHT22;22893;50.572;7.234;2022-11-15T17:18:11;21.40;68.80
24087;DHT22;22893;50.572;7.234;2022-11-15T17:20:41;21.40;68.80
24087;DHT22;22893;50.572;7.234;2022-11-15T17:23:15;21.40;68.80
24087;DHT22;22893;50.572;7.234;2022-11-15T17:25:39;21.40;68.90
24087;DHT22;22893;50.572;7.234;2022-11-15T17:28:07;21.40;68.80
24087;DHT22;22893;50.572;7.234;2022-11-15T17:30:39;21.40;68.80
24087;DHT22;22893;50.572;7.234;2022-11-15T17:33:07;21.40;68.90
24087;DHT22;22893;50.572;7.234;2022-11-15T17:35:36;21.40;69.30
24087;DHT22;22893;50.572;7.234;2022-11-15T17:38:04;21.40;68.90
24087;DHT22;22893;50.572;7.234;2022-11-15T17:40:31;21.40;69.00
24087;DHT22;22893;50.572;7.234;2022-11-15T17:43:10;21.40;69.20
24087;DHT22;22893;50.572;7.234;2022-11-15T17:45:31;21.40;69.20
24087;DHT22;22893;50.572;7.234;2022-11-15T17:47:58;21.40;69.00
24087;DHT22;22893;50.572;7.234;2022-11-15T17:50:26;21.40;69.00
24087;DHT22;22893;50.572;7.234;2022-11-15T17:52:53;21.40;69.00
24087;DHT22;22893;50.572;7.234;2022-11-15T17:55:22;21.40;69.00
24087;DHT22;22893;50.572;7.234;2022-11-15T17:57:50;21.40;69.00
24087;DHT22;22893;50.572;7.234;2022-11-15T18:00:18;21.40;69.00
24087;DHT22;22893;50.572;7.234;2022-11-15T18:02:47;21.40;69.00
24087;DHT22;22893;50.572;7.234;2022-11-15T18:05:14;21.40;68.90
24087;DHT22;22893;50.572;7.234;2022-11-15T18:07:42;21.50;69.00
24087;DHT22;22893;50.572;7.234;2022-11-15T18:10:10;21.40;69.00
24087;DHT22;22893;50.572;7.234;2022-11-15T18:12:42;21.40;69.00
24087;DHT22;22893;50.572;7.234;2022-11-15T18:15:13;21.40;69.10
24087;DHT22;22893;50.572;7.234;2022-11-15T18:17:41;21.40;69.00
24087;DHT22;22893;50.572;7.234;2022-11-15T18:20:09;21.40;69.20
24087;DHT22;22893;50.572;7.234;2022-11-15T18:22:44;21.40;69.50
24087;DHT22;22893;50.572;7.234;2022-11-15T18:25:10;21.40;69.50
24087;DHT22;22893;50.572;7.234;2022-11-15T18:48:31;21.50;70.20
24087;DHT22;22893;50.572;7.234;2022-11-15T18:51:04;21.50;70.20
24087;DHT22;22893;50.572;7.234;2022-11-15T18:53:34;21.50;70.20
24087;DHT22;22893;50.572;7.234;2022-11-15T18:56:08;21.50;70.20
24087;DHT22;22893;50.572;7.234;2022-11-15T19:01:40;21.50;70.40
24087;DHT22;22893;50.572;7.234;2022-11-15T19:04:16;21.50;70.50
24087;DHT22;22893;50.572;7.234;2022-11-15T19:06:46;21.50;70.60
24087;DHT22;22893;50.572;7.234;2022-11-15T19:09:26;21.50;70.80
24087;DHT22;22893;50.572;7.234;2022-11-15T19:11:55;21.50;70.80
24087;DHT22;22893;50.572;7.234;2022-11-15T19:14:32;21.50;70.80
24087;DHT22;22893;50.572;7.234;2022-11-15T19:17:01;21.50;70.80
24087;DHT22;22893;50.572;7.234;2022-11-15T19:19:30;21.50;70.90
24087;DHT22;22893;50.572;7.234;2022-11-15T19:22:04;21.50;71.00
24087;DHT22;22893;50.572;7.234;2022-11-15T19:24:34;21.50;71.00
24087;DHT22;22893;50.572;7.234;2022-11-15T19:27:01;21.40;70.10
24087;DHT22;22893;50.572;7.234;2022-11-15T19:29:29;21.40;70.10
24087;DHT22;22893;50.572;7.234;2022-11-15T19:31:57;21.40;70.30
24087;DHT22;22893;50.572;7.234;2022-11-15T19:34:26;21.40;70.60
24087;DHT22;22893;50.572;7.234;2022-11-15T19:36:54;21.40;70.70
24087;DHT22;22893;50.572;7.234;2022-11-15T19:39:21;21.40;71.00
24087;DHT22;22893;50.572;7.234;2022-11-15T19:41:49;21.30;70.90
24087;DHT22;22893;50.572;7.234;2022-11-15T19:44:17;21.30;71.10
24087;DHT22;22893;50.572;7.234;2022-11-15T19:46:48;21.30;71.20
24087;DHT22;22893;50.572;7.234;2022-11-15T19:49:21;21.30;71.40
24087;DHT22;22893;50.572;7.234;2022-11-15T19:51:49;21.40;71.60
24087;DHT22;22893;50.572;7.234;2022-11-15T19:54:16;21.30;71.40
24087;DHT22;22893;50.572;7.234;2022-11-15T19:56:44;21.30;72.40
24087;DHT22;22893;50.572;7.234;2022-11-15T19:59:12;21.40;71.70
24087;DHT22;22893;50.572;7.234;2022-11-15T20:01:44;21.40;71.70
24087;DHT22;22893;50.572;7.234;2022-11-15T20:04:11;21.40;71.70
24087;DHT22;22893;50.572;7.234;2022-11-15T20:06:41;21.40;72.00
24087;DHT22;22893;50.572;7.234;2022-11-15T20:09:15;21.40;71.90
24087;DHT22;22893;50.572;7.234;2022-11-15T20:11:44;21.30;71.80
24087;DHT22;22893;50.572;7.234;2022-11-15T20:14:12;21.30;72.00
24087;DHT22;22893;50.572;7.234;2022-11-15T20:16:41;21.40;72.00
24087;DHT22;22893;50.572;7.234;2022-11-15T20:19:12;21.40;72.20
24087;DHT22;22893;50.572;7.234;2022-11-15T20:21:42;21.40;72.00
24087;DHT22;22893;50.572;7.234;2022-11-15T20:24:10;21.40;72.20
24087;DHT22;22893;50.572;7.234;2022-11-15T20:26:40;21.40;72.20
24087;DHT22;22893;50.572;7.234;2022-11-15T20:29:07;21.40;72.20
24087;DHT22;22893;50.572;7.234;2022-11-15T20:31:35;21.40;72.20
24087;DHT22;22893;50.572;7.234;2022-11-15T20:34:06;21.40;72.20
24087;DHT22;22893;50.572;7.234;2022-11-15T20:36:34;21.50;72.40
24087;DHT22;22893;50.572;7.234;2022-11-15T20:39:01;21.40;72.30
24087;DHT22;22893;50.572;7.234;2022-11-15T20:41:32;21.50;72.30
24087;DHT22;22893;50.572;7.234;2022-11-15T20:44:00;21.50;72.40
24087;DHT22;22893;50.572;7.234;2022-11-15T20:46:28;21.50;72.40
24087;DHT22;22893;50.572;7.234;2022-11-15T20:48:56;21.50;72.40
24087;DHT22;22893;50.572;7.234;2022-11-15T20:51:24;21.50;72.60
24087;DHT22;22893;50.572;7.234;2022-11-15T20:53:55;21.50;72.60
24087;DHT22;22893;50.572;7.234;2022-11-15T20:56:23;21.50;72.80
24087;DHT22;22893;50.572;7.234;2022-11-15T20:58:50;21.50;72.70
24087;DHT22;22893;50.572;7.234;2022-11-15T21:01:20;21.50;72.70
24087;DHT22;22893;50.572;7.234;2022-11-15T21:03:51;21.50;72.70
24087;DHT22;22893;50.572;7.234;2022-11-15T21:06:23;21.50;72.70
24087;DHT22;22893;50.572;7.234;2022-11-15T21:08:52;21.50;72.70
24087;DHT22;22893;50.572;7.234;2022-11-15T21:11:38;21.50;73.00
24087;DHT22;22893;50.572;7.234;2022-11-15T21:14:23;21.50;72.90
24087;DHT22;22893;50.572;7.234;2022-11-15T21:16:51;21.50;72.90
24087;DHT22;22893;50.572;7.234;2022-11-15T21:19:19;21.60;72.90
24087;DHT22;22893;50.572;7.234;2022-11-15T21:21:47;21.50;73.00
24087;DHT22;22893;50.572;7.234;2022-11-15T21:24:14;21.50;72.90
24087;DHT22;22893;50.572;7.234;2022-11-15T21:26:44;21.60;73.10
24087;DHT22;22893;50.572;7.234;2022-11-15T21:29:11;21.60;73.00
24087;DHT22;22893;50.572;7.234;2022-11-15T21:31:46;21.60;73.00
24087;DHT22;22893;50.572;7.234;2022-11-15T21:34:14;21.50;73.00
24087;DHT22;22893;50.572;7.234;2022-11-15T21:36:43;21.50;73.00
24087;DHT22;22893;50.572;7.234;2022-11-15T21:39:10;21.60;73.80
24087;DHT22;22893;50.572;7.234;2022-11-15T21:41:38;21.50;74.30
24087;DHT22;22893;50.572;7.234;2022-11-15T21:44:08;21.60;74.30
24087;DHT22;22893;50.572;7.234;2022-11-15T21:46:36;21.60;74.00
24087;DHT22;22893;50.572;7.234;2022-11-15T21:49:04;21.50;74.00
24087;DHT22;22893;50.572;7.234;2022-11-15T21:51:32;21.60;73.70
24087;DHT22;22893;50.572;7.234;2022-11-15T21:54:00;21.60;73.70
24087;DHT22;22893;50.572;7.234;2022-11-15T21:56:31;21.60;73.70
24087;DHT22;22893;50.572;7.234;2022-11-15T21:58:59;21.60;73.60
24087;DHT22;22893;50.572;7.234;2022-11-15T22:01:27;21.60;73.60
24087;DHT22;22893;50.572;7.234;2022-11-15T22:04:13;21.50;73.60
24087;DHT22;22893;50.572;7.234;2022-11-15T22:06:41;21.50;73.70
24087;DHT22;22893;50.572;7.234;2022-11-15T22:09:09;21.60;73.60
24087;DHT22;22893;50.572;7.234;2022-11-15T22:11:36;21.50;73.70
24087;DHT22;22893;50.572;7.234;2022-11-15T22:14:05;21.50;73.50
24087;DHT22;22893;50.572;7.234;2022-11-15T22:16:33;21.50;73.70
24087;DHT22;22893;50.572;7.234;2022-11-15T22:19:02;21.50;74.00
24087;DHT22;22893;50.572;7.234;2022-11-15T22:21:30;21.50;73.70
24087;DHT22;22893;50.572;7.234;2022-11-15T22:23:57;21.50;73.60
24087;DHT22;22893;50.572;7.234;2022-11-15T22:26:25;21.60;74.50
24087;DHT22;22893;50.572;7.234;2022-11-15T22:28:53;21.50;73.50
24087;DHT22;22893;50.572;7.234;2022-11-15T22:31:20;21.50;73.50
24087;DHT22;22893;50.572;7.234;2022-11-15T22:33:48;21.50;73.50
24087;DHT22;22893;50.572;7.234;2022-11-15T22:36:16;21.50;73.50
24087;DHT22;22893;50.572;7.234;2022-11-15T22:38:43;21.50;73.70
24087;DHT22;22893;50.572;7.234;2022-11-15T22:41:11;21.50;73.50
24087;DHT22;22893;50.572;7.234;2022-11-15T22:43:39;21.50;73.30
24087;DHT22;22893;50.572;7.234;2022-11-15T22:46:06;21.50;73.40
24087;DHT22;22893;50.572;7.234;2022-11-15T22:48:36;21.50;73.20
24087;DHT22;22893;50.572;7.234;2022-11-15T22:51:04;21.50;73.40
24087;DHT22;22893;50.572;7.234;2022-11-15T22:53:32;21.50;73.50
24087;DHT22;22893;50.572;7.234;2022-11-15T22:56:02;21.50;73.90
24087;DHT22;22893;50.572;7.234;2022-11-15T22:58:31;21.50;73.60
24087;DHT22;22893;50.572;7.234;2022-11-15T23:01:01;21.50;73.60
24087;DHT22;22893;50.572;7.234;2022-11-15T23:03:29;21.50;73.50
24087;DHT22;22893;50.572;7.234;2022-11-15T23:06:02;21.50;73.50
24087;DHT22;22893;50.572;7.234;2022-11-15T23:08:30;21.50;73.40
